Time;durP1;ratioP1;P1;durP2;ratioP2;P2;SDS_P1;SDS_P2;PMS_P1;PMS_P2;Temp;Humidity;BMP_temperature;BMP_pressure;BME280_temperature;BME280_humidity;BME280_pressure;Samples;Min_cycle;Max_cycle;Signal;HPM_P1;HPM_P2
2022/05/21 00:02:19;;;;;;;1999.90;999.90;;;15.20;99.90;;;;;;5051696;28;20805;-68
2022/05/21 00:04:45;;;;;;;1999.90;999.90;;;15.20;99.90;;;;;;5052235;28;20864;-68
2022/05/21 00:07:12;;;;;;;1999.90;999.90;;;15.20;99.90;;;;;;5052451;28;20442;-67
2022/05/21 00:09:39;;;;;;;1999.90;999.90;;;15.20;99.90;;;;;;5051568;28;20860;-67
2022/05/21 00:12:07;;;;;;;1999.90;999.90;;;15.30;99.90;;;;;;5051439;28;20450;-68
2022/05/21 00:14:34;;;;;;;1999.90;999.90;;;15.30;99.90;;;;;;5051843;28;20446;-68
2022/05/21 00:17:03;;;;;;;1999.90;999.90;;;15.40;99.90;;;;;;5051972;28;20485;-68
2022/05/21 00:19:29;;;;;;;1999.90;999.90;;;15.30;99.90;;;;;;5052373;28;20473;-67
2022/05/21 00:21:56;;;;;;;1999.90;999.90;;;15.30;99.90;;;;;;5051489;28;20442;-68
2022/05/21 00:24:23;;;;;;;1999.90;999.90;;;15.30;99.90;;;;;;5051461;28;20450;-68
2022/05/21 00:26:49;;;;;;;1999.90;999.90;;;15.30;99.90;;;;;;5051810;28;20496;-68
2022/05/21 00:29:20;;;;;;;1999.90;999.90;;;15.20;99.90;;;;;;5051487;28;20990;-68
2022/05/21 00:31:46;;;;;;;1999.90;999.90;;;15.20;99.90;;;;;;5051571;28;21004;-67
2022/05/21 00:34:14;;;;;;;1999.90;999.90;;;15.20;99.90;;;;;;5051865;28;20454;-69
2022/05/21 00:36:41;;;;;;;1999.90;999.90;;;15.20;99.90;;;;;;5051028;28;21095;-67
2022/05/21 00:39:08;;;;;;;1999.90;999.90;;;15.20;99.90;;;;;;5051603;28;20520;-68
2022/05/21 00:41:34;;;;;;;1999.90;999.90;;;15.10;99.90;;;;;;5051923;28;20454;-67
2022/05/21 00:44:02;;;;;;;1999.90;999.90;;;15.10;99.90;;;;;;5051665;28;20512;-68
2022/05/21 00:46:31;;;;;;;1999.90;999.90;;;15.10;99.90;;;;;;5051751;28;20446;-66
2022/05/21 00:49:03;;;;;;;1999.90;999.90;;;15.10;99.90;;;;;;5051737;28;20536;-68
2022/05/21 00:51:36;;;;;;;1999.90;999.90;;;15.10;99.90;;;;;;5052289;28;20446;-68
2022/05/21 00:54:04;;;;;;;1999.90;999.90;;;15.20;99.90;;;;;;5051864;28;20446;-68
2022/05/21 00:56:34;;;;;;;1999.90;999.90;;;15.20;99.90;;;;;;5051574;28;20486;-68
2022/05/21 01:01:51;;;;;;;1999.90;999.90;;;15.20;99.90;;;;;;5051755;28;20405;-67
2022/05/21 01:04:18;;;;;;;1999.90;999.90;;;15.10;99.90;;;;;;5051863;28;20435;-67
2022/05/21 01:06:46;;;;;;;1999.90;999.90;;;15.00;99.90;;;;;;5052132;28;20454;-66
2022/05/21 01:09:12;;;;;;;1999.90;999.90;;;14.90;99.90;;;;;;5051669;28;20474;-67
2022/05/21 01:11:40;;;;;;;1999.90;999.90;;;14.80;99.90;;;;;;5051649;28;20454;-67
2022/05/21 01:14:10;;;;;;;1999.90;999.90;;;14.80;99.90;;;;;;5050224;28;21025;-67
2022/05/21 01:16:37;;;;;;;1999.90;999.90;;;14.80;99.90;;;;;;5049783;28;20467;-67
2022/05/21 01:19:06;;;;;;;1999.90;999.90;;;14.80;99.90;;;;;;5049998;28;20466;-67
2022/05/21 01:21:33;;;;;;;1999.90;999.90;;;14.80;99.90;;;;;;5049505;28;20450;-67
2022/05/21 01:24:01;;;;;;;1999.90;999.90;;;14.80;99.90;;;;;;5049717;28;20545;-66
2022/05/21 01:26:28;;;;;;;1999.90;999.90;;;14.80;99.90;;;;;;5050688;28;20450;-68
2022/05/21 01:28:57;;;;;;;1999.90;999.90;;;14.80;99.90;;;;;;5052035;28;20514;-67
2022/05/21 01:31:24;;;;;;;1999.90;999.90;;;14.80;99.90;;;;;;5054709;28;20931;-68
2022/05/21 01:33:51;;;;;;;1999.90;999.90;;;14.80;99.90;;;;;;5055184;28;21003;-69
2022/05/21 01:36:18;;;;;;;1999.90;999.90;;;14.70;99.90;;;;;;5054681;28;21006;-67
2022/05/21 01:38:45;;;;;;;1999.90;999.90;;;14.70;99.90;;;;;;5054887;28;20469;-67
2022/05/21 01:41:14;;;;;;;1999.90;999.90;;;14.80;99.90;;;;;;5055129;28;20966;-68
2022/05/21 01:46:25;;;;;;;1999.90;999.90;;;14.70;99.90;;;;;;5054803;28;20453;-68
2022/05/21 01:48:52;;;;;;;1999.90;999.90;;;14.60;99.90;;;;;;5054614;28;20462;-65
2022/05/21 01:51:19;;;;;;;1999.90;999.90;;;14.40;99.90;;;;;;5054593;28;20570;-66
2022/05/21 01:53:45;;;;;;;1999.90;999.90;;;14.30;99.90;;;;;;5054208;28;20442;-66
2022/05/21 01:56:15;;;;;;;1999.90;999.90;;;14.10;99.90;;;;;;5053441;28;21293;-67
2022/05/21 01:58:43;;;;;;;1999.90;999.90;;;14.00;99.90;;;;;;5053783;28;20473;-68
2022/05/21 02:01:10;;;;;;;1999.90;999.90;;;13.80;99.90;;;;;;5054453;28;20446;-68
2022/05/21 02:03:37;;;;;;;1999.90;999.90;;;13.80;99.90;;;;;;5054094;28;20446;-68
2022/05/21 02:06:05;;;;;;;1999.90;999.90;;;13.70;99.90;;;;;;5054138;28;20989;-67
2022/05/21 02:08:31;;;;;;;1999.90;999.90;;;13.80;99.90;;;;;;5051788;28;21018;-68
2022/05/21 02:10:58;;;;;;;1999.90;999.90;;;13.80;99.90;;;;;;5050035;28;20523;-68
2022/05/21 02:13:28;;;;;;;1999.90;999.90;;;13.70;99.90;;;;;;5050936;28;20894;-68
2022/05/21 02:15:55;;;;;;;1999.90;999.90;;;13.70;99.90;;;;;;5067367;28;20441;-68
2022/05/21 02:18:22;;;;;;;1999.90;999.90;;;13.70;99.90;;;;;;5054249;28;20959;-67
2022/05/21 02:20:50;;;;;;;1999.90;999.90;;;13.60;99.90;;;;;;5053748;28;20545;-68
2022/05/21 02:23:16;;;;;;;1999.90;999.90;;;13.60;99.90;;;;;;5053141;28;20450;-68
2022/05/21 02:25:43;;;;;;;1999.90;999.90;;;13.60;99.90;;;;;;5054024;28;20548;-68
2022/05/21 02:28:12;;;;;;;1999.90;999.90;;;13.60;99.90;;;;;;5053924;28;20500;-68
2022/05/21 02:30:41;;;;;;;1999.90;999.90;;;13.50;99.90;;;;;;5053723;28;20541;-68
2022/05/21 02:33:08;;;;;;;1999.90;999.90;;;13.50;99.90;;;;;;5052821;28;20950;-68
2022/05/21 02:35:35;;;;;;;1999.90;999.90;;;13.50;99.90;;;;;;5053497;28;20505;-68
2022/05/21 02:40:46;;;;;;;1999.90;999.90;;;13.40;99.90;;;;;;5052536;28;20417;-68
2022/05/21 02:43:13;;;;;;;1999.90;999.90;;;13.40;99.90;;;;;;5053511;28;20507;-68
2022/05/21 02:45:41;;;;;;;1999.90;999.90;;;13.30;99.90;;;;;;5052850;28;21035;-68
2022/05/21 02:48:07;;;;;;;1999.90;999.90;;;13.20;99.90;;;;;;5052949;28;20446;-68
2022/05/21 02:50:35;;;;;;;1999.90;999.90;;;13.10;99.90;;;;;;5053540;28;20446;-67
2022/05/21 02:53:03;;;;;;;1999.90;999.90;;;13.00;99.90;;;;;;5053083;28;20446;-68
2022/05/21 02:55:29;;;;;;;1999.90;999.90;;;13.00;99.90;;;;;;5052989;28;20446;-68
2022/05/21 02:57:56;;;;;;;1999.90;999.90;;;12.90;99.90;;;;;;5053317;28;20547;-68
2022/05/21 03:00:25;;;;;;;1999.90;999.90;;;12.90;99.90;;;;;;5052395;28;21166;-68
2022/05/21 03:02:54;;;;;;;1999.90;999.90;;;12.90;99.90;;;;;;5052921;28;20446;-68
2022/05/21 03:05:20;;;;;;;1999.90;999.90;;;12.80;99.90;;;;;;5053164;28;20520;-68
2022/05/21 03:07:50;;;;;;;1999.90;999.90;;;12.80;99.90;;;;;;5052804;28;20469;-68
2022/05/21 03:10:21;;;;;;;1999.90;999.90;;;12.80;99.90;;;;;;5052717;28;20478;-68
2022/05/21 03:12:49;;;;;;;1999.90;999.90;;;12.80;99.90;;;;;;5052540;28;20470;-67
2022/05/21 03:15:16;;;;;;;1999.90;999.90;;;12.80;99.90;;;;;;5050519;28;21053;-68
2022/05/21 03:17:43;;;;;;;1999.90;999.90;;;12.90;99.90;;;;;;5052215;28;20486;-67
2022/05/21 03:20:13;;;;;;;1999.90;999.90;;;12.80;99.90;;;;;;5060723;28;20898;-68
2022/05/21 03:22:40;;;;;;;1999.90;999.90;;;12.80;99.90;;;;;;5070471;28;20457;-68
2022/05/21 03:25:07;;;;;;;1999.90;999.90;;;12.90;99.90;;;;;;5072707;28;20475;-67
2022/05/21 03:27:34;;;;;;;1999.90;999.90;;;12.90;99.90;;;;;;5068505;28;20869;-67
2022/05/21 03:30:01;;;;;;;1999.90;999.90;;;12.80;99.90;;;;;;5052543;28;20470;-68
2022/05/21 03:32:28;;;;;;;1999.90;999.90;;;12.80;99.90;;;;;;5052013;28;20580;-68
2022/05/21 03:34:55;;;;;;;1999.90;999.90;;;12.70;99.90;;;;;;5052626;28;20477;-68
2022/05/21 03:37:23;;;;;;;1999.90;999.90;;;12.80;99.90;;;;;;5053046;28;20474;-67
2022/05/21 03:39:50;;;;;;;1999.90;999.90;;;12.80;99.90;;;;;;5052983;28;20474;-67
2022/05/21 03:42:17;;;;;;;1999.90;999.90;;;12.90;99.90;;;;;;5052359;28;20950;-67
2022/05/21 03:44:45;;;;;;;1999.90;999.90;;;12.90;99.90;;;;;;5052783;28;20446;-67
2022/05/21 03:47:12;;;;;;;1999.90;999.90;;;12.90;99.90;;;;;;5052676;28;20473;-67
2022/05/21 03:49:39;;;;;;;1999.90;999.90;;;13.00;99.90;;;;;;5052413;28;20536;-68
2022/05/21 03:52:07;;;;;;;1999.90;999.90;;;13.00;99.90;;;;;;5051876;28;20446;-67
2022/05/21 03:54:35;;;;;;;1999.90;999.90;;;13.00;99.90;;;;;;5052076;28;20537;-67
2022/05/21 03:57:02;;;;;;;1999.90;999.90;;;13.10;99.90;;;;;;5052282;28;20528;-67
2022/05/21 03:59:29;;;;;;;1999.90;999.90;;;13.00;99.90;;;;;;5051974;28;20470;-66
2022/05/21 04:01:55;;;;;;;1999.90;999.90;;;13.10;99.90;;;;;;5052154;28;20454;-67
2022/05/21 04:04:22;;;;;;;1999.90;999.90;;;13.00;99.90;;;;;;5052016;28;20810;-67
2022/05/21 04:06:49;;;;;;;1999.90;999.90;;;13.10;99.90;;;;;;5051889;28;20995;-67
2022/05/21 04:09:15;;;;;;;1999.90;999.90;;;13.10;99.90;;;;;;5051761;28;20474;-67
2022/05/21 04:11:43;;;;;;;1999.90;999.90;;;13.20;99.90;;;;;;5051627;28;20446;-67
2022/05/21 04:14:12;;;;;;;1999.90;999.90;;;13.30;99.90;;;;;;5051572;28;20449;-67
2022/05/21 04:16:39;;;;;;;1999.90;999.90;;;13.20;99.90;;;;;;5052166;28;20532;-67
2022/05/21 04:19:06;;;;;;;1999.90;999.90;;;13.20;99.90;;;;;;5050906;28;20477;-68
2022/05/21 04:21:33;;;;;;;1999.90;999.90;;;13.30;99.90;;;;;;5049733;28;20470;-66
2022/05/21 04:23:59;;;;;;;1999.90;999.90;;;13.30;99.90;;;;;;5051298;28;20462;-68
2022/05/21 04:26:26;;;;;;;1999.90;999.90;;;13.40;99.90;;;;;;5063817;28;20500;-67
2022/05/21 04:28:54;;;;;;;1999.90;999.90;;;13.30;99.90;;;;;;5057612;28;20474;-68
2022/05/21 04:31:21;;;;;;;1999.90;999.90;;;13.40;99.90;;;;;;5051757;28;20450;-68
2022/05/21 04:33:47;;;;;;;1999.90;999.90;;;13.60;99.90;;;;;;5051099;28;20450;-68
2022/05/21 04:36:20;;;;;;;1999.90;999.90;;;13.90;99.90;;;;;;5051552;28;20942;-68
2022/05/21 04:38:47;;;;;;;1999.90;999.90;;;14.10;99.90;;;;;;5051143;28;20493;-68
2022/05/21 04:41:13;;;;;;;1999.90;999.90;;;14.30;99.90;;;;;;5051482;28;20452;-68
2022/05/21 04:43:40;;;;;;;1999.90;999.90;;;14.20;99.90;;;;;;5051704;28;20447;-67
2022/05/21 04:46:09;;;;;;;1999.90;999.90;;;14.10;99.90;;;;;;5051347;28;20504;-68
2022/05/21 04:48:35;;;;;;;1999.90;999.90;;;14.40;99.90;;;;;;5051977;28;20462;-67
2022/05/21 04:51:04;;;;;;;1999.90;999.90;;;14.50;99.90;;;;;;5051581;28;20500;-67
2022/05/21 04:53:32;;;;;;;1999.90;999.90;;;14.90;99.90;;;;;;5051061;28;20503;-67
2022/05/21 04:55:58;;;;;;;1999.90;999.90;;;15.10;99.90;;;;;;5051141;28;20450;-68
2022/05/21 04:58:26;;;;;;;1999.90;999.90;;;15.20;99.90;;;;;;5051066;28;20492;-66
2022/05/21 05:00:52;;;;;;;1999.90;999.90;;;15.10;99.90;;;;;;5051521;28;20442;-70
2022/05/21 05:03:20;;;;;;;1999.90;999.90;;;15.00;99.90;;;;;;5051379;28;20454;-67
2022/05/21 05:05:47;;;;;;;1999.90;999.90;;;15.10;99.90;;;;;;5055391;28;20449;-67
2022/05/21 05:08:15;;;;;;;1999.90;999.90;;;15.20;99.90;;;;;;5054959;28;20493;-67
2022/05/21 05:10:42;;;;;;;1999.90;999.90;;;15.40;99.90;;;;;;5071770;22;20496;-72
2022/05/21 05:13:09;;;;;;;1999.90;999.90;;;15.40;99.90;;;;;;5052781;28;20454;-72
2022/05/21 05:15:36;;;;;;;1999.90;999.90;;;15.40;99.90;;;;;;5056993;28;20442;-70
2022/05/21 05:18:05;;;;;;;1999.90;999.90;;;15.50;99.90;;;;;;5056167;28;20580;-73
2022/05/21 05:20:33;;;;;;;1999.90;999.90;;;15.60;99.90;;;;;;5054598;28;20970;-70
2022/05/21 05:23:00;;;;;;;1999.90;999.90;;;15.80;99.90;;;;;;5054393;28;20442;-70
2022/05/21 05:25:27;;;;;;;1999.90;999.90;;;16.00;99.90;;;;;;5052793;28;20462;-70
2022/05/21 05:27:54;;;;;;;1999.90;999.90;;;16.10;99.90;;;;;;5053574;28;20523;-71
2022/05/21 05:30:22;;;;;;;1999.90;999.90;;;16.10;99.90;;;;;;5047266;28;21151;-72
2022/05/21 05:32:49;;;;;;;1999.90;999.90;;;15.70;99.90;;;;;;5048750;28;20953;-70
2022/05/21 05:35:17;;;;;;;1999.90;999.90;;;15.40;99.90;;;;;;5048682;28;20466;-69
2022/05/21 05:37:45;;;;;;;1999.90;999.90;;;15.10;99.90;;;;;;5048787;28;20504;-70
2022/05/21 05:40:14;;;;;;;1999.90;999.90;;;14.90;99.90;;;;;;5049350;28;20912;-70
2022/05/21 05:42:41;;;;;;;1999.90;999.90;;;14.70;99.90;;;;;;5045136;28;21027;-70
2022/05/21 05:45:11;;;;;;;1999.90;999.90;;;14.70;99.90;;;;;;5049825;28;21019;-70
2022/05/21 05:47:37;;;;;;;1999.90;999.90;;;14.50;99.90;;;;;;5048751;28;20458;-71
2022/05/21 05:50:05;;;;;;;1999.90;999.90;;;14.30;99.90;;;;;;5050241;28;20535;-70
2022/05/21 05:52:32;;;;;;;1999.90;999.90;;;14.50;99.90;;;;;;5047202;28;20462;-72
2022/05/21 05:55:00;;;;;;;1999.90;999.90;;;14.50;99.90;;;;;;5051143;28;20489;-70
2022/05/21 05:57:27;;;;;;;1999.90;999.90;;;14.60;99.90;;;;;;5050677;28;20912;-68
2022/05/21 05:59:53;;;;;;;1999.90;999.90;;;14.60;99.90;;;;;;5046824;28;20920;-72
2022/05/21 06:05:17;;;;;;;1999.90;999.90;;;14.30;99.90;;;;;;5012212;28;20198;-69
2022/05/21 06:07:45;;;;;;;1999.90;999.90;;;14.40;99.90;;;;;;5047051;28;20454;-76
2022/05/21 06:10:15;;;;;;;1999.90;999.90;;;14.50;99.90;;;;;;5047191;28;20559;-70
2022/05/21 06:12:42;;;;;;;1999.90;999.90;;;14.50;99.90;;;;;;5043584;28;20462;-73
2022/05/21 06:15:10;;;;;;;1999.90;999.90;;;14.50;99.90;;;;;;5050017;28;20463;-69
2022/05/21 06:17:36;;;;;;;1999.90;999.90;;;14.70;99.90;;;;;;5048457;28;20923;-72
2022/05/21 06:20:04;;;;;;;1999.90;999.90;;;14.90;99.90;;;;;;5050932;28;20540;-71
2022/05/21 06:22:32;;;;;;;1999.90;999.90;;;14.90;99.90;;;;;;5049217;28;20467;-70
2022/05/21 06:24:58;;;;;;;1999.90;999.90;;;15.00;99.90;;;;;;5050721;28;20458;-71
2022/05/21 06:27:26;;;;;;;1999.90;999.90;;;15.10;99.90;;;;;;5051193;28;20454;-70
2022/05/21 06:29:53;;;;;;;1999.90;999.90;;;15.00;99.90;;;;;;5050194;28;21353;-70
2022/05/21 06:32:20;;;;;;;1999.90;999.90;;;14.90;99.90;;;;;;5049906;28;20461;-70
2022/05/21 06:34:47;;;;;;;1999.90;999.90;;;14.90;99.90;;;;;;5050520;28;20512;-71
2022/05/21 06:37:13;;;;;;;1999.90;999.90;;;14.90;99.90;;;;;;5050645;28;20467;-70
2022/05/21 06:39:42;;;;;;;1999.90;999.90;;;15.00;99.90;;;;;;5050875;28;20539;-71
2022/05/21 06:42:09;;;;;;;1999.90;999.90;;;15.10;99.90;;;;;;5050616;28;20863;-69
2022/05/21 06:44:37;;;;;;;1999.90;999.90;;;14.80;99.90;;;;;;5048885;28;21008;-71
2022/05/21 06:47:05;;;;;;;1999.90;999.90;;;14.80;99.90;;;;;;5051512;28;21004;-69
2022/05/21 06:49:31;;;;;;;1999.90;999.90;;;14.90;99.90;;;;;;5050842;28;20490;-72
2022/05/21 06:51:59;;;;;;;1999.90;999.90;;;15.20;99.90;;;;;;5051724;28;20462;-72
2022/05/21 06:54:27;;;;;;;1999.90;999.90;;;15.50;99.90;;;;;;5051294;28;20470;-72
2022/05/21 06:56:54;;;;;;;1999.90;999.90;;;15.50;99.90;;;;;;5054154;28;20472;-71
2022/05/21 06:59:21;;;;;;;1999.90;999.90;;;15.40;99.90;;;;;;5054071;28;20508;-71
2022/05/21 07:01:49;;;;;;;1999.90;999.90;;;15.10;99.90;;;;;;5052024;28;20963;-69
2022/05/21 07:07:32;;;;;;;1999.90;999.90;;;14.90;99.90;;;;;;5049707;28;20966;-71
2022/05/21 07:09:48;;;;;;;1999.90;999.90;;;15.30;99.90;;;;;;5045612;28;21012;-72
2022/05/21 07:12:14;;;;;;;1999.90;999.90;;;15.00;99.90;;;;;;5050724;28;20516;-70
2022/05/21 07:14:41;;;;;;;1999.90;999.90;;;15.00;99.90;;;;;;5056368;28;20489;-71
2022/05/21 07:17:09;;;;;;;1999.90;999.90;;;15.00;99.90;;;;;;5052126;28;20458;-70
2022/05/21 07:19:36;;;;;;;1999.90;999.90;;;15.20;99.90;;;;;;5051177;28;20908;-71
2022/05/21 07:22:05;;;;;;;1999.90;999.90;;;15.30;99.90;;;;;;5054172;28;20442;-71
2022/05/21 07:24:31;;;;;;;1999.90;999.90;;;15.30;99.90;;;;;;5052489;28;20875;-71
2022/05/21 07:26:59;;;;;;;1999.90;999.90;;;15.00;99.90;;;;;;5052322;28;20508;-71
2022/05/21 07:29:25;;;;;;;1999.90;999.90;;;15.10;99.90;;;;;;5053408;28;20600;-73
2022/05/21 07:31:52;;;;;;;1999.90;999.90;;;15.50;99.90;;;;;;5053894;28;20438;-71
2022/05/21 07:34:20;;;;;;;1999.90;999.90;;;15.80;99.90;;;;;;5053098;28;20442;-73
2022/05/21 07:36:47;;;;;;;1999.90;999.90;;;16.00;99.90;;;;;;5053818;28;20446;-70
2022/05/21 07:39:14;;;;;;;1999.90;999.90;;;15.90;99.90;;;;;;5054579;28;20551;-71
2022/05/21 07:41:41;;;;;;;1999.90;999.90;;;15.90;99.90;;;;;;5053681;28;20439;-71
2022/05/21 07:44:08;;;;;;;1999.90;999.90;;;15.90;99.90;;;;;;5053533;28;20891;-70
2022/05/21 07:46:35;;;;;;;1999.90;999.90;;;15.70;99.90;;;;;;5053809;28;20915;-71
2022/05/21 07:49:01;;;;;;;1999.90;999.90;;;15.80;99.90;;;;;;5053781;28;21043;-71
2022/05/21 07:51:30;;;;;;;1999.90;999.90;;;16.10;99.90;;;;;;5054151;28;20818;-71
2022/05/21 07:53:57;;;;;;;1999.90;999.90;;;16.50;99.90;;;;;;5053906;28;20458;-71
2022/05/21 07:56:24;;;;;;;1999.90;999.90;;;16.80;99.90;;;;;;5053886;28;20488;-72
2022/05/21 07:58:50;;;;;;;1999.90;999.90;;;17.20;99.90;;;;;;5052377;28;20474;-73
2022/05/21 08:01:17;;;;;;;1999.90;999.90;;;17.10;99.90;;;;;;5053417;28;20442;-71
2022/05/21 08:03:44;;;;;;;1999.90;999.90;;;16.20;99.90;;;;;;5052709;28;20516;-71
2022/05/21 08:06:11;;;;;;;1999.90;999.90;;;16.00;99.90;;;;;;5054327;28;20812;-70
2022/05/21 08:08:39;;;;;;;1999.90;999.90;;;16.00;99.90;;;;;;5055147;28;20500;-72
2022/05/21 08:11:06;;;;;;;1999.90;999.90;;;16.20;99.90;;;;;;5054111;28;20491;-71
2022/05/21 08:13:34;;;;;;;1999.90;999.90;;;16.30;99.90;;;;;;5053157;28;20445;-72
2022/05/21 08:16:01;;;;;;;1999.90;999.90;;;16.30;99.90;;;;;;5053208;28;20809;-72
2022/05/21 08:18:28;;;;;;;1999.90;999.90;;;16.30;99.90;;;;;;5053751;28;20473;-69
2022/05/21 08:20:55;;;;;;;1999.90;999.90;;;16.40;99.90;;;;;;5052744;28;20462;-71
2022/05/21 08:28:55;;;;;;;1999.90;999.90;;;16.20;99.90;;;;;;5053626;28;20410;-69
2022/05/21 08:31:22;;;;;;;1999.90;999.90;;;16.40;99.90;;;;;;5053369;28;20446;-71
2022/05/21 08:33:49;;;;;;;1999.90;999.90;;;16.10;99.90;;;;;;5052855;28;20442;-72
2022/05/21 08:36:15;;;;;;;1999.90;999.90;;;16.10;99.90;;;;;;5053537;28;20438;-69
2022/05/21 08:38:42;;;;;;;1999.90;999.90;;;15.80;99.90;;;;;;5054624;28;20507;-71
2022/05/21 08:41:14;;;;;;;1999.90;999.90;;;15.70;99.90;;;;;;5056796;28;20438;-71
2022/05/21 08:43:52;;;;;;;1999.90;999.90;;;15.80;99.90;;;;;;5056972;28;20942;-73
2022/05/21 08:46:28;;;;;;;1999.90;999.90;;;15.70;99.90;;;;;;5057713;28;20513;-71
2022/05/21 08:49:02;;;;;;;1999.90;999.90;;;15.90;99.90;;;;;;5056903;28;20882;-71
2022/05/21 08:51:33;;;;;;;1999.90;999.90;;;15.80;99.90;;;;;;5057647;28;20965;-71
2022/05/21 08:54:03;;;;;;;1999.90;999.90;;;15.90;99.90;;;;;;5057608;28;20434;-71
2022/05/21 08:56:32;;;;;;;1999.90;999.90;;;16.10;99.90;;;;;;5057895;28;20438;-75
2022/05/21 08:59:05;;;;;;;1999.90;999.90;;;16.10;99.90;;;;;;5057256;28;20536;-74
2022/05/21 09:01:35;;;;;;;1999.90;999.90;;;16.50;99.90;;;;;;5056618;28;20442;-69
2022/05/21 09:04:03;;;;;;;1999.90;999.90;;;16.50;99.90;;;;;;5057166;28;20450;-70
2022/05/21 09:06:37;;;;;;;1999.90;999.90;;;17.00;99.90;;;;;;5056985;28;20449;-70
2022/05/21 09:09:11;;;;;;;1999.90;999.90;;;17.10;99.90;;;;;;5057056;28;20473;-69
2022/05/21 09:11:42;;;;;;;1999.90;999.90;;;16.80;99.90;;;;;;5057193;28;20444;-71
2022/05/21 09:14:13;;;;;;;1999.90;999.90;;;17.10;99.90;;;;;;5056990;28;20845;-74
2022/05/21 09:17:00;;;;;;;1999.90;999.90;;;16.70;99.90;;;;;;5056925;28;20442;-72
2022/05/21 09:19:28;;;;;;;1999.90;999.90;;;17.10;99.90;;;;;;5056669;28;20557;-70
2022/05/21 09:22:00;;;;;;;1999.90;999.90;;;17.40;99.90;;;;;;5056142;28;20442;-70
2022/05/21 09:24:38;;;;;;;1999.90;999.90;;;17.60;99.90;;;;;;5054935;28;20800;-71
2022/05/21 09:27:21;;;;;;;1999.90;999.90;;;17.80;99.90;;;;;;5055569;28;20426;-72
2022/05/21 09:29:48;;;;;;;1999.90;999.90;;;17.40;99.90;;;;;;5056739;28;20466;-72
2022/05/21 09:32:21;;;;;;;1999.90;999.90;;;17.80;99.90;;;;;;5055346;28;20446;-70
2022/05/21 09:35:03;;;;;;;1999.90;999.90;;;18.40;99.90;;;;;;5054932;28;20430;-72
2022/05/21 09:37:30;;;;;;;1999.90;999.90;;;18.70;99.90;;;;;;5055054;28;20472;-72
2022/05/21 09:39:57;;;;;;;1999.90;999.90;;;18.40;99.90;;;;;;5055169;28;21067;-72
2022/05/21 09:45:26;;;;;;;1999.90;999.90;;;18.30;99.90;;;;;;5056575;28;20791;-73
2022/05/21 09:47:54;;;;;;;1999.90;999.90;;;18.50;99.90;;;;;;5054413;28;20523;-73
2022/05/21 09:50:24;;;;;;;1999.90;999.90;;;18.80;99.90;;;;;;5054074;28;20524;-72
2022/05/21 09:52:51;;;;;;;1999.90;999.90;;;18.90;99.90;;;;;;5055348;28;20450;-72
2022/05/21 09:55:24;;;;;;;1999.90;999.90;;;19.10;99.90;;;;;;5055301;28;20446;-72
2022/05/21 09:57:54;;;;;;;1999.90;999.90;;;19.10;99.90;;;;;;5056080;28;20814;-72
2022/05/21 10:00:24;;;;;;;1999.90;999.90;;;19.10;99.90;;;;;;5055224;28;20493;-74
2022/05/21 10:02:52;;;;;;;1999.90;999.90;;;18.90;99.90;;;;;;5055762;28;20823;-72
2022/05/21 10:05:23;;;;;;;1999.90;999.90;;;18.90;99.90;;;;;;5054933;28;20512;-72
2022/05/21 10:11:00;;;;;;;1999.90;999.90;;;19.30;99.90;;;;;;5053300;28;20469;-73
2022/05/21 10:13:32;;;;;;;1999.90;999.90;;;19.80;99.90;;;;;;5054859;28;20426;-72
2022/05/21 10:16:06;;;;;;;1999.90;999.90;;;19.50;99.90;;;;;;5053996;28;20504;-72
2022/05/21 10:18:38;;;;;;;1999.90;999.90;;;19.30;99.90;;;;;;5054560;28;20470;-72
2022/05/21 10:21:16;;;;;;;1999.90;999.90;;;18.70;99.90;;;;;;5054242;28;20450;-72
2022/05/21 10:23:50;;;;;;;1999.90;999.90;;;18.70;99.90;;;;;;5054180;28;20858;-72
2022/05/21 10:26:39;;;;;;;1999.90;999.90;;;18.90;99.90;;;;;;5054172;28;20480;-71
2022/05/21 10:29:25;;;;;;;1999.90;999.90;;;19.30;99.90;;;;;;5053509;28;20463;-70
2022/05/21 10:31:59;;;;;;;1999.90;999.90;;;19.60;99.90;;;;;;5033876;28;20450;-70
2022/05/21 10:34:40;;;;;;;1999.90;999.90;;;20.00;99.90;;;;;;5033827;28;20489;-70
2022/05/21 10:37:21;;;;;;;1999.90;999.90;;;20.00;99.90;;;;;;5033856;28;20432;-72
2022/05/21 10:40:07;;;;;;;1999.90;999.90;;;20.20;99.90;;;;;;5038274;28;20493;-73
2022/05/21 10:42:51;;;;;;;1999.90;999.90;;;19.90;99.90;;;;;;5053444;28;20427;-72
2022/05/21 10:45:26;;;;;;;1999.90;999.90;;;20.00;99.90;;;;;;5053680;28;20806;-72
2022/05/21 10:48:27;;;;;;;1999.90;999.90;;;20.20;99.90;;;;;;5053623;28;20430;-72
2022/05/21 10:50:58;;;;;;;1999.90;999.90;;;20.30;99.90;;;;;;5039102;28;20523;-72
2022/05/21 10:53:49;;;;;;;1999.90;999.90;;;20.30;99.90;;;;;;5053220;28;20438;-72
2022/05/21 10:56:36;;;;;;;1999.90;999.90;;;20.20;99.40;;;;;;5053044;28;20446;-72
2022/05/21 10:59:16;;;;;;;1999.90;999.90;;;20.00;99.90;;;;;;5053007;28;20577;-73
2022/05/21 11:01:52;;;;;;;1999.90;999.90;;;20.00;99.90;;;;;;5051535;28;21044;-73
2022/05/21 11:04:58;;;;;;;1999.90;999.90;;;19.80;99.80;;;;;;5053168;28;20458;-72
2022/05/21 11:07:38;;;;;;;1999.90;999.90;;;19.80;99.90;;;;;;5053097;28;20446;-73
2022/05/21 11:10:16;;;;;;;1999.90;999.90;;;19.80;99.80;;;;;;5066295;22;20550;-67
2022/05/21 11:12:52;;;;;;;1999.90;999.90;;;19.70;99.90;;;;;;5023442;28;20493;-65
2022/05/21 11:15:33;;;;;;;1999.90;999.90;;;19.60;99.90;;;;;;5032889;28;20465;-65
2022/05/21 11:18:06;;;;;;;1999.90;999.90;;;19.10;99.80;;;;;;5033033;28;20451;-67
2022/05/21 11:20:37;;;;;;;1999.90;999.90;;;18.60;99.90;;;;;;5032444;28;20491;-67
2022/05/21 11:23:09;;;;;;;1999.90;999.90;;;18.70;99.90;;;;;;5032501;28;20864;-67
2022/05/21 11:25:41;;;;;;;1999.90;999.90;;;18.50;99.90;;;;;;5032979;28;20427;-64
2022/05/21 11:28:21;;;;;;;1999.90;999.90;;;18.90;99.90;;;;;;5032827;28;20458;-67
2022/05/21 11:30:48;;;;;;;1999.90;999.90;;;19.30;99.90;;;;;;5032304;28;20462;-67
2022/05/21 11:38:54;;;;;;;1999.90;999.90;;;19.90;99.70;;;;;;5032410;28;20993;-66
2022/05/21 11:41:27;;;;;;;1999.90;999.90;;;20.00;99.40;;;;;;5031934;28;20517;-65
2022/05/21 11:46:51;;;;;;;1999.90;999.90;;;19.70;99.50;;;;;;5031989;28;20927;-64
2022/05/21 11:49:43;;;;;;;1999.90;999.90;;;19.90;99.70;;;;;;5032359;28;20447;-66
2022/05/21 11:52:48;;;;;;;1999.90;999.90;;;20.20;99.20;;;;;;5012406;28;20452;-66
2022/05/21 11:55:17;;;;;;;1999.90;999.90;;;20.30;97.60;;;;;;5012265;28;20448;-66
2022/05/21 11:57:46;;;;;;;1999.90;999.90;;;20.20;98.20;;;;;;5012401;28;20502;-66
2022/05/21 12:00:43;;;;;;;1999.90;999.90;;;20.30;98.40;;;;;;5030014;28;20491;-66
2022/05/21 12:03:46;;;;;;;1999.90;999.90;;;20.20;97.60;;;;;;5031804;28;20443;-66
2022/05/21 12:06:32;;;;;;;1999.90;999.90;;;20.30;98.50;;;;;;5031415;28;20450;-66
2022/05/21 12:09:11;;;;;;;1999.90;999.90;;;20.30;97.60;;;;;;5032024;28;20625;-65
2022/05/21 12:11:44;;;;;;;1999.90;999.90;;;20.40;97.60;;;;;;5032016;28;20430;-65
2022/05/21 12:14:19;;;;;;;1999.90;999.90;;;20.50;98.30;;;;;;5031295;28;20796;-66
2022/05/21 12:16:52;;;;;;;1999.90;999.90;;;20.60;97.80;;;;;;5032280;28;20482;-65
2022/05/21 12:20:09;;;;;;;1999.90;999.90;;;20.40;98.00;;;;;;5031572;28;20497;-66
2022/05/21 12:22:44;;;;;;;1999.90;999.90;;;20.00;98.10;;;;;;5031514;28;20490;-65
2022/05/21 12:25:32;;;;;;;1999.90;999.90;;;20.20;98.40;;;;;;5031749;28;20802;-65
2022/05/21 12:28:02;;;;;;;1999.90;999.90;;;20.10;97.60;;;;;;5031532;28;20452;-66
2022/05/21 12:30:30;;;;;;;1999.90;999.90;;;20.10;98.00;;;;;;5011920;28;20999;-66
2022/05/21 12:32:57;;;;;;;1999.90;999.90;;;20.00;97.60;;;;;;5011543;28;20448;-66
2022/05/21 12:35:41;;;;;;;1999.90;999.90;;;20.00;98.20;;;;;;5011459;28;20869;-67
2022/05/21 12:38:15;;;;;;;1999.90;999.90;;;20.00;98.00;;;;;;5012691;28;20439;-67
2022/05/21 12:40:49;;;;;;;1999.90;999.90;;;20.00;98.50;;;;;;5031746;28;20536;-65
2022/05/21 12:43:16;;;;;;;1999.90;999.90;;;20.10;98.10;;;;;;5031316;28;20451;-66
2022/05/21 12:45:45;;;;;;;1999.90;999.90;;;20.40;98.60;;;;;;5031902;28;20447;-65
2022/05/21 12:48:16;;;;;;;1999.90;999.90;;;20.50;97.40;;;;;;5030989;28;20526;-65